Friday, January 19, 2018, 2:22 AM EST
Back to Local

KIWI, Wiscasset Municipal Airport

Location: Wiscasset, ME, United States Lat: 43.967
Local Time: 2:22 AM EST ( 7:22 GMT) Lon: -69.717
Time Zone: US/Eastern Elev: 68 ft

Show me the last for .
Show Coded

Time T Td Feel RH Dir Speed Gust Alt SLP Vis Weather Sky Remarks
2018-01-19 01:53 9 6 - 87 - Calm - 29.90 29.90 10 CLR None
2018-01-19 00:53 10 7 - 87 - Calm - 29.89 29.89 10 CLR 6-hr Min Temp (1am): 10.0°F
6-hr Max Temp (1am): 18.0°F
2018-01-18 23:53 12 9 - 87 - Calm - 29.90 29.90 10 CLR 24-hr Min Temp (12am): 9.0°F
24-hr Max Temp (12am): 32.0°F
2018-01-18 22:53 10 9 - 95 - Calm - 29.90 29.90 10 CLR None
2018-01-18 21:53 12 10 - 91 - Calm - 29.91 29.91 10 CLR None
2018-01-18 20:53 14 12 - 91 - Calm - 29.91 29.91 10 CLR None
2018-01-18 19:53 16 14 - 91 - Calm - 29.90 29.90 10 CLR None
2018-01-18 18:53 18 16 - 91 - Calm - 29.89 29.89 10 CLR 6-hr Min Temp (7pm): 17.1°F
6-hr Max Temp (7pm): 32.0°F
2018-01-18 17:53 21 18 - 87 - Calm - 29.87 29.87 10 CLR None
2018-01-18 16:53 24 20 - 83 - Calm - 29.86 29.86 10 CLR None
2018-01-18 15:53 30 18 25 60 Variable 5 - 29.85 29.85 10 CLR None
2018-01-18 14:53 31 18 26 58 Variable 5 - 29.84 29.85 10 CLR None
2018-01-18 13:53 31 17 26 55 Variable 5 - 29.86 29.86 10 CLR None
2018-01-18 12:53 31 18 25 58 Variable 6 - 29.88 29.88 10 CLR 6-hr Min Temp (1pm): 9.0°F
6-hr Max Temp (1pm): 30.9°F
2018-01-18 11:53 29 18 22 63 Variable 7 - 29.90 29.90 10 CLR None
2018-01-18 10:53 27 18 23 68 Variable 3 - 29.93 29.93 10 CLR None
2018-01-18 09:53 25 17 19 71 Variable 5 - 29.95 29.95 10 CLR None
2018-01-18 08:53 21 19 16 91 Variable 3 - 29.95 29.96 10 CLR None
2018-01-18 07:53 11 10 - 96 - Calm - 29.95 29.95 10 CLR None
2018-01-18 06:53 11 9 - 91 - Calm - 29.94 29.94 10 CLR 24-hr Precip Total (7am): 0.26"
6-hr Min Temp (7am): 9.0°F
6-hr Max Temp (7am): 25.0°F
2018-01-18 05:53 11 9 - 91 - Calm - 29.94 29.95 10 CLR None
2018-01-18 04:53 14 12 - 91 - Calm - 29.95 29.96 10 CLR None
2018-01-18 03:53 16 15 - 96 - Calm - 29.96 29.96 10 CLR None
2018-01-18 02:53 19 18 - 95 - Calm - 29.97 29.97 9 CLR None

Support USWX by starting your Amazon purchase here.